Time,TemperatureF,DewpointF,PressureIn,WindDirection,WindDirectionDegrees,WindSpeedMPH,WindSpeedGustMPH,Humidity,HourlyPrecipIn,Conditions,Clouds,dailyrainin,SoftwareType,DateUTC
2013-07-20 00:01:00,58.3,55.1,29.86,ESE,102,1.2,1.2,89,0.00,CLR,,0.00,WeatherDisplay:10.37,2013-07-20 07:01:00,
2013-07-20 00:06:00,58.3,55.1,29.85,SE,129,1.2,1.2,89,0.00,CLR,,0.00,WeatherDisplay:10.37,2013-07-20 07:06:00,
2013-07-20 00:11:00,58.2,55.0,29.85,SE,124,1.2,1.2,89,0.00,CLR,,0.00,WeatherDisplay:10.37,2013-07-20 07:11:00,
2013-07-20 00:16:00,58.2,55.0,29.85,SE,134,1.2,1.2,89,0.00,CLR,,0.00,WeatherDisplay:10.37,2013-07-20 07:16:00,
2013-07-20 00:21:00,58.2,55.0,29.85,ESE,118,2.3,2.3,89,0.00,CLR,,0.00,WeatherDisplay:10.37,2013-07-20 07:21:00,
2013-07-20 00:26:00,58.2,55.0,29.85,ESE,115,2.0,2.0,89,0.00,CLR,,0.00,WeatherDisplay:10.37,2013-07-20 07:26:00,
2013-07-20 00:31:00,58.1,54.9,29.85,ESE,121,1.2,1.2,89,0.00,CLR,,0.00,WeatherDisplay:10.37,2013-07-20 07:31:00,
2013-07-20 00:36:00,58.1,54.9,29.85,SE,124,2.3,2.3,89,0.00,CLR,,0.00,WeatherDisplay:10.37,2013-07-20 07:36:00,
2013-07-20 00:41:00,58.0,54.8,29.85,SE,128,1.2,1.2,89,0.00,CLR,,0.00,WeatherDisplay:10.37,2013-07-20 07:41:00,
2013-07-20 00:46:00,57.9,54.7,29.85,SE,138,3.5,3.5,89,0.00,CLR,,0.00,WeatherDisplay:10.37,2013-07-20 07:46:00,
2013-07-20 00:51:00,57.9,54.7,29.85,SE,143,3.5,3.5,89,0.00,CLR,,0.00,WeatherDisplay:10.37,2013-07-20 07:51:00,
2013-07-20 00:56:00,57.9,54.7,29.85,SSE,150,0.0,0.0,89,0.00,CLR,,0.00,WeatherDisplay:10.37,2013-07-20 07:56:00,
2013-07-20 01:01:00,57.9,54.7,29.85,South,191,3.5,3.5,89,0.00,CLR,,0.00,WeatherDisplay:10.37,2013-07-20 08:01:00,
2013-07-20 01:06:00,58.0,54.8,29.85,ESE,123,2.3,2.3,89,0.00,CLR,,0.00,WeatherDisplay:10.37,2013-07-20 08:06:00,
2013-07-20 01:11:00,58.0,54.8,29.85,SSE,147,2.0,2.0,89,0.00,CLR,,0.00,WeatherDisplay:10.37,2013-07-20 08:11:00,
2013-07-20 01:16:00,58.1,54.9,29.85,SE,131,3.5,3.5,89,0.00,CLR,,0.00,WeatherDisplay:10.37,2013-07-20 08:16:00,
2013-07-20 01:21:00,58.1,54.9,29.85,SW,214,2.0,2.0,89,0.00,CLR,,0.00,WeatherDisplay:10.37,2013-07-20 08:21:00,
2013-07-20 01:26:00,58.1,54.6,29.85,South,177,4.6,4.6,88,0.00,CLR,,0.00,WeatherDisplay:10.37,2013-07-20 08:26:00,
2013-07-20 01:31:00,58.0,54.5,29.85,SE,124,2.3,2.3,88,0.00,CLR,,0.00,WeatherDisplay:10.37,2013-07-20 08:31:00,
2013-07-20 01:36:00,58.0,54.5,29.85,SE,146,2.0,2.0,88,0.00,CLR,,0.00,WeatherDisplay:10.37,2013-07-20 08:36:00,
2013-07-20 01:41:00,57.8,54.3,29.85,SSW,200,3.5,3.5,88,0.00,CLR,,0.00,WeatherDisplay:10.37,2013-07-20 08:41:00,
2013-07-20 01:46:00,57.8,54.3,29.85,SSE,154,2.3,2.3,88,0.00,CLR,,0.00,WeatherDisplay:10.37,2013-07-20 08:46:00,
2013-07-20 01:51:00,57.8,54.3,29.85,ESE,118,1.2,1.2,88,0.00,CLR,,0.00,WeatherDisplay:10.37,2013-07-20 08:51:00,
2013-07-20 01:56:00,57.8,54.6,29.85,SSE,160,1.0,1.0,89,0.00,CLR,,0.00,WeatherDisplay:10.37,2013-07-20 08:56:00,
2013-07-20 02:01:00,57.8,54.6,29.85,South,172,2.3,2.3,89,0.00,CLR,,0.00,WeatherDisplay:10.37,2013-07-20 09:01:00,
2013-07-20 02:06:00,57.8,54.3,29.85,SSE,152,3.5,3.5,88,0.00,CLR,,0.00,WeatherDisplay:10.37,2013-07-20 09:06:00,
2013-07-20 02:11:00,57.8,54.3,29.84,WSW,239,2.3,2.3,88,0.00,CLR,,0.00,WeatherDisplay:10.37,2013-07-20 09:11:00,
2013-07-20 02:16:00,57.9,54.4,29.84,SSE,167,1.2,0.0,88,0.00,CLR,,0.00,WeatherDisplay:10.37,2013-07-20 09:16:00,
2013-07-20 02:21:00,57.9,54.4,29.84,SW,224,1.2,1.2,88,0.00,CLR,,0.00,WeatherDisplay:10.37,2013-07-20 09:21:00,
2013-07-20 02:26:00,57.9,54.4,29.84,WSW,246,1.2,1.2,88,0.00,CLR,,0.00,WeatherDisplay:10.37,2013-07-20 09:26:00,
2013-07-20 02:31:00,57.9,54.4,29.84,WSW,245,2.3,2.3,88,0.00,CLR,,0.00,WeatherDisplay:10.37,2013-07-20 09:31:00,
2013-07-20 02:36:00,57.9,54.4,29.84,South,169,1.2,1.2,88,0.00,CLR,,0.00,WeatherDisplay:10.37,2013-07-20 09:36:00,
2013-07-20 02:41:00,57.9,54.4,29.84,WSW,252,1.2,1.2,88,0.00,CLR,,0.00,WeatherDisplay:10.37,2013-07-20 09:41:00,
2013-07-20 02:46:00,57.9,54.7,29.84,WSW,243,2.3,2.3,89,0.00,CLR,,0.00,WeatherDisplay:10.37,2013-07-20 09:46:00,
2013-07-20 02:51:00,57.9,54.7,29.84,WSW,243,0.0,0.0,89,0.00,CLR,,0.00,WeatherDisplay:10.37,2013-07-20 09:51:00,
2013-07-20 02:56:00,57.9,54.4,29.84,SSW,207,1.2,1.2,88,0.00,CLR,,0.00,WeatherDisplay:10.37,2013-07-20 09:56:00,
2013-07-20 03:01:00,57.9,54.4,29.84,SSW,207,0.0,0.0,88,0.00,CLR,,0.00,WeatherDisplay:10.37,2013-07-20 10:01:00,
2013-07-20 03:06:00,57.9,54.4,29.84,SSW,207,0.0,0.0,88,0.00,CLR,,0.00,WeatherDisplay:10.37,2013-07-20 10:06:00,
2013-07-20 03:11:00,57.9,54.4,29.84,SSW,207,1.2,1.2,88,0.00,CLR,,0.00,WeatherDisplay:10.37,2013-07-20 10:11:00,
2013-07-20 03:16:00,57.9,54.7,29.84,SSW,198,1.2,1.2,89,0.00,CLR,,0.00,WeatherDisplay:10.37,2013-07-20 10:16:00,
2013-07-20 03:21:00,57.9,54.4,29.83,SSE,165,1.2,1.2,88,0.00,CLR,,0.00,WeatherDisplay:10.37,2013-07-20 10:21:00,
2013-07-20 03:26:00,57.9,54.4,29.83,SSE,154,1.2,1.2,88,0.00,CLR,,0.00,WeatherDisplay:10.37,2013-07-20 10:26:00,
2013-07-20 03:31:00,57.8,54.6,29.83,East,84,2.3,2.3,89,0.00,CLR,,0.00,WeatherDisplay:10.37,2013-07-20 10:31:00,
2013-07-20 03:36:00,57.6,54.4,29.83,SSW,201,2.0,2.0,89,0.00,CLR,,0.00,WeatherDisplay:10.37,2013-07-20 10:36:00,
2013-07-20 03:41:00,57.6,54.4,29.83,SSE,156,2.3,2.3,89,0.00,CLR,,0.00,WeatherDisplay:10.37,2013-07-20 10:41:00,
2013-07-20 03:46:00,57.4,54.2,29.83,ENE,74,2.3,2.3,89,0.00,CLR,,0.00,WeatherDisplay:10.37,2013-07-20 10:46:00,
2013-07-20 03:51:00,57.4,54.2,29.83,ENE,71,1.0,1.0,89,0.00,CLR,,0.00,WeatherDisplay:10.37,2013-07-20 10:51:00,
2013-07-20 03:56:00,57.4,54.2,29.83,NE,49,1.2,1.2,89,0.00,CLR,,0.00,WeatherDisplay:10.37,2013-07-20 10:56:00,
2013-07-20 04:01:00,57.4,54.2,29.83,East,79,1.0,1.0,89,0.00,CLR,,0.00,WeatherDisplay:10.37,2013-07-20 11:01:00,
2013-07-20 04:06:00,57.4,54.2,29.83,South,176,1.2,0.0,89,0.00,CLR,,0.00,WeatherDisplay:10.37,2013-07-20 11:06:00,
2013-07-20 04:11:00,57.5,54.3,29.83,SW,233,2.3,2.3,89,0.00,CLR,,0.00,WeatherDisplay:10.37,2013-07-20 11:11:00,
2013-07-20 04:16:00,57.5,54.3,29.83,SSE,158,1.2,1.2,89,0.00,CLR,,0.00,WeatherDisplay:10.37,2013-07-20 11:16:00,
2013-07-20 04:21:00,57.6,54.4,29.83,SSE,150,2.3,2.3,89,0.00,CLR,,0.00,WeatherDisplay:10.37,2013-07-20 11:21:00,
2013-07-20 04:26:00,57.6,54.4,29.83,SSE,159,1.2,0.0,89,0.00,CLR,,0.00,WeatherDisplay:10.37,2013-07-20 11:26:00,
2013-07-20 04:31:00,57.6,54.4,29.83,SSE,161,1.2,0.0,89,0.00,CLR,,0.00,WeatherDisplay:10.37,2013-07-20 11:31:00,
2013-07-20 04:36:00,57.6,54.4,29.83,WSW,240,1.2,1.2,89,0.00,CLR,,0.00,WeatherDisplay:10.37,2013-07-20 11:36:00,
2013-07-20 04:41:00,57.6,54.4,29.83,WSW,239,1.2,1.2,89,0.00,CLR,,0.00,WeatherDisplay:10.37,2013-07-20 11:41:00,
2013-07-20 04:46:00,57.7,54.5,29.83,SSW,212,1.2,1.2,89,0.00,CLR,,0.00,WeatherDisplay:10.37,2013-07-20 11:46:00,
2013-07-20 04:51:00,57.8,54.6,29.83,South,190,1.2,0.0,89,0.00,CLR,,0.00,WeatherDisplay:10.37,2013-07-20 11:51:00,
2013-07-20 04:56:00,57.7,54.5,29.83,South,188,0.0,0.0,89,0.00,CLR,,0.00,WeatherDisplay:10.37,2013-07-20 11:56:00,
2013-07-20 05:01:00,57.7,54.5,29.83,WSW,243,1.0,1.0,89,0.00,CLR,,0.00,WeatherDisplay:10.37,2013-07-20 12:01:00,
2013-07-20 05:06:00,57.7,54.5,29.83,SSW,212,1.2,0.0,89,0.00,CLR,,0.00,WeatherDisplay:10.37,2013-07-20 12:06:00,
2013-07-20 05:11:00,57.7,54.5,29.83,SSE,163,1.2,0.0,89,0.00,CLR,,0.00,WeatherDisplay:10.37,2013-07-20 12:11:00,
2013-07-20 05:16:00,57.7,54.5,29.83,ESE,115,1.2,1.2,89,0.00,CLR,,0.00,WeatherDisplay:10.37,2013-07-20 12:16:00,
2013-07-20 05:21:00,57.6,54.4,29.83,SE,143,1.0,1.0,89,0.00,CLR,,0.00,WeatherDisplay:10.37,2013-07-20 12:21:00,
2013-07-20 05:26:00,57.6,54.4,29.83,SE,142,1.2,1.2,89,0.00,CLR,,0.00,WeatherDisplay:10.37,2013-07-20 12:26:00,
2013-07-20 05:31:00,57.6,54.4,29.83,SE,142,0.0,0.0,89,0.00,CLR,,0.00,WeatherDisplay:10.37,2013-07-20 12:31:00,
2013-07-20 05:36:00,57.6,54.4,29.83,South,177,0.0,0.0,89,0.00,CLR,,0.00,WeatherDisplay:10.37,2013-07-20 12:36:00,
2013-07-20 05:41:00,57.6,54.4,29.83,SE,142,1.2,0.0,89,0.00,CLR,,0.00,WeatherDisplay:10.37,2013-07-20 12:41:00,
2013-07-20 05:46:00,57.5,54.3,29.83,SSE,156,1.2,1.2,89,0.00,CLR,,0.00,WeatherDisplay:10.37,2013-07-20 12:46:00,
2013-07-20 05:51:00,57.4,54.5,29.83,ESE,117,1.2,1.2,90,0.00,CLR,,0.00,WeatherDisplay:10.37,2013-07-20 12:51:00,
2013-07-20 05:56:00,57.4,54.5,29.83,SE,138,2.3,2.3,90,0.00,CLR,,0.00,WeatherDisplay:10.37,2013-07-20 12:56:00,
2013-07-20 06:01:00,57.3,54.4,29.83,ESE,117,1.2,1.2,90,0.00,CLR,,0.00,WeatherDisplay:10.37,2013-07-20 13:01:00,
2013-07-20 06:07:00,57.3,54.4,29.83,ESE,117,0.0,0.0,90,0.00,CLR,,0.00,WeatherDisplay:10.37,2013-07-20 13:07:00,
2013-07-20 06:12:00,57.3,54.4,29.83,SSE,165,1.0,1.0,90,0.00,CLR,,0.00,WeatherDisplay:10.37,2013-07-20 13:12:00,
2013-07-20 06:17:00,57.3,54.4,29.84,SSE,158,0.0,0.0,90,0.00,CLR,,0.00,WeatherDisplay:10.37,2013-07-20 13:17:00,
2013-07-20 06:22:00,57.3,54.4,29.84,SE,130,1.2,1.2,90,0.00,CLR,,0.00,WeatherDisplay:10.37,2013-07-20 13:22:00,
2013-07-20 06:27:00,57.4,54.5,29.83,SE,130,1.0,1.0,90,0.00,CLR,,0.00,WeatherDisplay:10.37,2013-07-20 13:27:00,
2013-07-20 06:32:00,57.4,54.5,29.84,SSE,149,2.3,2.3,90,0.00,CLR,,0.00,WeatherDisplay:10.37,2013-07-20 13:32:00,
2013-07-20 06:37:00,57.4,54.5,29.84,SSE,150,2.3,2.3,90,0.00,CLR,,0.00,WeatherDisplay:10.37,2013-07-20 13:37:00,
2013-07-20 06:42:00,57.4,54.2,29.84,SSE,149,2.3,2.3,89,0.00,CLR,,0.00,WeatherDisplay:10.37,2013-07-20 13:42:00,
2013-07-20 06:47:00,57.3,54.1,29.84,SSE,153,2.3,2.3,89,0.00,CLR,,0.00,WeatherDisplay:10.37,2013-07-20 13:47:00,
2013-07-20 06:52:00,57.3,54.1,29.84,ESE,115,1.2,1.2,89,0.00,CLR,,0.00,WeatherDisplay:10.37,2013-07-20 13:52:00,
2013-07-20 06:57:00,57.2,54.3,29.84,SE,138,1.2,1.2,90,0.00,CLR,,0.00,WeatherDisplay:10.37,2013-07-20 13:57:00,
2013-07-20 07:02:00,57.2,54.3,29.84,SSE,161,1.2,1.2,90,0.00,CLR,,0.00,WeatherDisplay:10.37,2013-07-20 14:02:00,
2013-07-20 07:03:00,57.2,54.3,29.84,SSE,161,2.3,0.0,90,0.00,CLR,,0.00,WeatherDisplay:10.37,2013-07-20 14:03:00,
2013-07-20 07:08:00,57.2,54.3,29.84,SW,225,3.5,3.5,90,0.00,CLR,,0.00,WeatherDisplay:10.37,2013-07-20 14:08:00,
2013-07-20 07:13:00,57.2,54.3,29.84,South,181,1.2,1.2,90,0.00,CLR,,0.00,WeatherDisplay:10.37,2013-07-20 14:13:00,
2013-07-20 07:18:00,57.4,54.2,29.84,South,183,3.5,3.5,89,0.00,CLR,,0.00,WeatherDisplay:10.37,2013-07-20 14:18:00,
2013-07-20 07:23:00,57.4,54.2,29.85,SE,140,3.5,3.5,89,0.00,CLR,,0.00,WeatherDisplay:10.37,2013-07-20 14:23:00,
2013-07-20 07:28:00,57.4,54.2,29.85,ESE,118,2.3,2.3,89,0.00,CLR,,0.00,WeatherDisplay:10.37,2013-07-20 14:28:00,
2013-07-20 07:33:00,57.4,54.2,29.85,South,169,3.0,3.0,89,0.00,CLR,,0.00,WeatherDisplay:10.37,2013-07-20 14:33:00,
2013-07-20 07:38:00,57.3,54.1,29.85,SSE,152,3.5,3.5,89,0.00,CLR,,0.00,WeatherDisplay:10.37,2013-07-20 14:38:00,
2013-07-20 07:43:00,57.2,54.0,29.85,SSW,203,3.5,3.5,89,0.00,CLR,,0.00,WeatherDisplay:10.37,2013-07-20 14:43:00,
2013-07-20 07:48:00,57.2,54.0,29.85,SW,216,2.3,2.3,89,0.00,CLR,,0.00,WeatherDisplay:10.37,2013-07-20 14:48:00,
2013-07-20 07:53:00,57.4,54.2,29.85,SSE,165,0.0,0.1,89,0.00,CLR,,0.00,WeatherDisplay:10.37,2013-07-20 14:53:00,
2013-07-20 07:58:00,57.5,54.3,29.85,SSW,195,2.3,0.0,89,0.00,CLR,,0.00,WeatherDisplay:10.37,2013-07-20 14:58:00,
2013-07-20 08:03:00,57.6,54.4,29.85,SE,131,1.2,1.2,89,0.00,CLR,,0.00,WeatherDisplay:10.37,2013-07-20 15:03:00,
2013-07-20 08:08:00,57.6,54.4,29.85,SE,142,0.0,0.1,89,0.00,CLR,,0.00,WeatherDisplay:10.37,2013-07-20 15:08:00,
2013-07-20 08:13:00,57.7,54.5,29.85,ESE,122,1.2,1.2,89,0.00,CLR,,0.00,WeatherDisplay:10.37,2013-07-20 15:13:00,
2013-07-20 08:18:00,57.8,54.6,29.86,WSW,245,2.3,2.3,89,0.00,CLR,,0.00,WeatherDisplay:10.37,2013-07-20 15:18:00,
2013-07-20 08:23:00,58.0,54.5,29.85,SW,225,1.2,0.0,88,0.00,CLR,,0.00,WeatherDisplay:10.37,2013-07-20 15:23:00,
2013-07-20 08:28:00,58.2,54.7,29.86,ESE,123,1.0,1.0,88,0.00,CLR,,0.00,WeatherDisplay:10.37,2013-07-20 15:28:00,
2013-07-20 08:33:00,58.3,54.8,29.85,ENE,78,1.2,1.2,88,0.00,CLR,,0.00,WeatherDisplay:10.37,2013-07-20 15:33:00,
2013-07-20 08:38:00,58.4,54.9,29.86,SE,143,1.2,1.2,88,0.00,CLR,,0.00,WeatherDisplay:10.37,2013-07-20 15:38:00,
2013-07-20 08:43:00,58.6,54.7,29.86,South,170,3.5,3.5,87,0.00,CLR,,0.00,WeatherDisplay:10.37,2013-07-20 15:43:00,
2013-07-20 08:48:00,58.8,54.9,29.86,SSE,150,1.2,0.0,87,0.00,CLR,,0.00,WeatherDisplay:10.37,2013-07-20 15:48:00,
2013-07-20 08:53:00,59.0,55.1,29.86,South,170,0.0,0.0,87,0.00,CLR,,0.00,WeatherDisplay:10.37,2013-07-20 15:53:00,
2013-07-20 08:58:00,59.4,55.5,29.85,WSW,239,1.2,1.2,87,0.00,CLR,,0.00,WeatherDisplay:10.37,2013-07-20 15:58:00,
2013-07-20 09:03:00,59.9,55.7,29.85,SW,233,1.2,1.2,86,0.00,CLR,,0.00,WeatherDisplay:10.37,2013-07-20 16:03:00,
2013-07-20 09:08:00,59.9,55.4,29.85,South,169,2.3,2.3,85,0.00,CLR,,0.00,WeatherDisplay:10.37,2013-07-20 16:08:00,
2013-07-20 09:13:00,60.1,55.6,29.85,NE,53,2.0,2.0,85,0.00,CLR,,0.00,WeatherDisplay:10.37,2013-07-20 16:13:00,
2013-07-20 09:18:00,60.4,55.9,29.85,SSW,198,1.2,1.2,85,0.00,CLR,,0.00,WeatherDisplay:10.37,2013-07-20 16:18:00,
2013-07-20 09:23:00,60.8,55.9,29.85,SSE,167,1.2,1.2,84,0.00,CLR,,0.00,WeatherDisplay:10.37,2013-07-20 16:23:00,
2013-07-20 09:28:00,61.4,56.2,29.85,SSE,152,3.5,3.5,83,0.00,CLR,,0.00,WeatherDisplay:10.37,2013-07-20 16:28:00,
2013-07-20 09:33:00,61.2,55.7,29.85,SSE,162,3.5,3.5,82,0.00,CLR,,0.00,WeatherDisplay:10.37,2013-07-20 16:33:00,
2013-07-20 09:38:00,61.3,56.1,29.85,SE,126,1.2,1.2,83,0.00,CLR,,0.00,WeatherDisplay:10.37,2013-07-20 16:38:00,
2013-07-20 09:43:00,61.9,56.3,29.85,SW,226,2.3,2.3,82,0.00,CLR,,0.00,WeatherDisplay:10.37,2013-07-20 16:43:00,
2013-07-20 09:48:00,62.2,56.3,29.85,SSE,158,2.3,2.3,81,0.00,CLR,,0.00,WeatherDisplay:10.37,2013-07-20 16:48:00,
2013-07-20 09:53:00,62.3,56.0,29.85,South,186,4.0,4.0,80,0.00,CLR,,0.00,WeatherDisplay:10.37,2013-07-20 16:53:00,
2013-07-20 09:58:00,62.3,56.4,29.84,SSE,155,3.5,3.5,81,0.00,CLR,,0.00,WeatherDisplay:10.37,2013-07-20 16:58:00,
2013-07-20 10:03:00,62.4,56.1,29.84,SE,131,4.6,4.6,80,0.00,CLR,,0.00,WeatherDisplay:10.37,2013-07-20 17:03:00,
2013-07-20 10:08:00,62.2,56.3,29.84,SSE,159,3.5,3.5,81,0.00,CLR,,0.00,WeatherDisplay:10.37,2013-07-20 17:08:00,
2013-07-20 10:13:00,62.4,56.1,29.84,SSE,150,4.6,4.6,80,0.00,CLR,,0.00,WeatherDisplay:10.37,2013-07-20 17:13:00,
2013-07-20 10:18:00,62.7,57.1,29.84,SE,142,5.8,5.8,82,0.00,CLR,,0.00,WeatherDisplay:10.37,2013-07-20 17:18:00,
2013-07-20 10:23:00,62.8,56.5,29.84,South,173,4.0,4.0,80,0.00,CLR,,0.00,WeatherDisplay:10.37,2013-07-20 17:23:00,
2013-07-20 10:28:00,63.1,56.8,29.84,SSE,159,2.3,2.3,80,0.00,CLR,,0.00,WeatherDisplay:10.37,2013-07-20 17:28:00,
2013-07-20 10:34:00,63.5,56.9,29.84,South,177,6.0,6.0,79,0.00,CLR,,0.00,WeatherDisplay:10.37,2013-07-20 17:34:00,
2013-07-20 10:39:00,63.7,57.4,29.84,ESE,115,2.3,2.3,80,0.00,CLR,,0.00,WeatherDisplay:10.37,2013-07-20 17:39:00,
2013-07-20 10:44:00,64.1,57.1,29.84,NNE,15,1.2,1.2,78,0.00,CLR,,0.00,WeatherDisplay:10.37,2013-07-20 17:44:00,
2013-07-20 10:49:00,64.6,57.2,29.83,SSE,152,3.5,3.5,77,0.00,CLR,,0.00,WeatherDisplay:10.37,2013-07-20 17:49:00,
2013-07-20 10:54:00,65.0,57.6,29.83,SSW,193,4.6,4.6,77,0.00,CLR,,0.00,WeatherDisplay:10.37,2013-07-20 17:54:00,
2013-07-20 10:59:00,65.2,57.4,29.83,SSE,165,2.3,2.3,76,0.00,CLR,,0.00,WeatherDisplay:10.37,2013-07-20 17:59:00,
2013-07-20 11:04:00,65.2,57.4,29.83,SSE,149,5.8,5.8,76,0.00,CLR,,0.00,WeatherDisplay:10.37,2013-07-20 18:04:00,
2013-07-20 11:09:00,65.8,58.0,29.83,South,170,3.5,3.5,76,0.00,CLR,,0.00,WeatherDisplay:10.37,2013-07-20 18:09:00,
2013-07-20 11:14:00,66.8,58.6,29.83,SSW,208,6.9,6.9,75,0.00,CLR,,0.00,WeatherDisplay:10.37,2013-07-20 18:14:00,
2013-07-20 11:19:00,67.1,58.5,29.83,South,174,4.6,4.6,74,0.00,CLR,,0.00,WeatherDisplay:10.37,2013-07-20 18:19:00,
2013-07-20 11:24:00,67.4,58.4,29.83,SE,131,3.5,3.5,73,0.00,CLR,,0.00,WeatherDisplay:10.37,2013-07-20 18:24:00,
2013-07-20 11:29:00,68.1,58.7,29.82,South,191,5.0,5.0,72,0.00,CLR,,0.00,WeatherDisplay:10.37,2013-07-20 18:29:00,
2013-07-20 11:34:00,68.6,58.4,29.82,ESE,122,6.9,6.9,70,0.00,CLR,,0.00,WeatherDisplay:10.37,2013-07-20 18:34:00,
2013-07-20 11:39:00,69.2,59.0,29.82,SE,134,3.5,3.5,70,0.00,CLR,,0.00,WeatherDisplay:10.37,2013-07-20 18:39:00,
2013-07-20 11:44:00,70.1,59.5,29.82,SSE,154,6.9,6.9,69,0.00,CLR,,0.00,WeatherDisplay:10.37,2013-07-20 18:44:00,
2013-07-20 11:49:00,70.8,59.3,29.82,SSE,160,3.5,3.5,67,0.00,CLR,,0.00,WeatherDisplay:10.37,2013-07-20 18:49:00,
2013-07-20 11:54:00,71.6,59.2,29.82,South,179,3.5,3.5,65,0.00,CLR,,0.00,WeatherDisplay:10.37,2013-07-20 18:54:00,
2013-07-20 11:59:00,72.9,59.6,29.82,South,172,4.0,4.0,63,0.00,CLR,,0.00,WeatherDisplay:10.37,2013-07-20 18:59:00,
2013-07-20 12:04:00,73.4,59.6,29.81,South,191,3.5,3.5,62,0.00,CLR,,0.00,WeatherDisplay:10.37,2013-07-20 19:04:00,
2013-07-20 12:09:00,74.1,60.2,29.81,ESE,107,3.5,3.5,62,0.00,CLR,,0.00,WeatherDisplay:10.37,2013-07-20 19:09:00,
2013-07-20 12:14:00,74.5,59.2,29.81,South,173,5.8,5.8,59,0.00,CLR,,0.00,WeatherDisplay:10.37,2013-07-20 19:14:00,
2013-07-20 12:20:00,74.6,59.8,29.81,SSE,158,3.5,3.5,60,0.00,CLR,,0.00,WeatherDisplay:10.37,2013-07-20 19:20:00,
2013-07-20 12:25:00,75.0,60.6,29.80,SSE,150,2.3,2.3,61,0.00,CLR,,0.00,WeatherDisplay:10.37,2013-07-20 19:25:00,
2013-07-20 12:30:00,75.9,60.1,29.80,SW,232,4.0,4.0,58,0.00,CLR,,0.00,WeatherDisplay:10.37,2013-07-20 19:30:00,
2013-07-20 12:35:00,77.0,60.1,29.80,SE,129,3.5,3.5,56,0.00,CLR,,0.00,WeatherDisplay:10.37,2013-07-20 19:35:00,
2013-07-20 12:40:00,76.9,60.0,29.80,SE,145,10.4,10.4,56,0.00,CLR,,0.00,WeatherDisplay:10.37,2013-07-20 19:40:00,
2013-07-20 12:45:00,77.0,60.1,29.80,WSW,246,4.6,4.6,56,0.00,CLR,,0.00,WeatherDisplay:10.37,2013-07-20 19:45:00,
2013-07-20 12:50:00,77.4,60.0,29.79,SE,134,3.5,3.5,55,0.00,CLR,,0.00,WeatherDisplay:10.37,2013-07-20 19:50:00,
2013-07-20 12:55:00,77.6,60.7,29.79,SSE,158,3.0,3.0,56,0.00,CLR,,0.00,WeatherDisplay:10.37,2013-07-20 19:55:00,
2013-07-20 13:00:00,78.0,60.0,29.79,SSE,167,8.1,8.1,54,0.00,CLR,,0.00,WeatherDisplay:10.37,2013-07-20 20:00:00,
2013-07-20 13:05:00,77.7,60.2,29.79,SSE,166,6.9,6.9,55,0.00,CLR,,0.00,WeatherDisplay:10.37,2013-07-20 20:05:00,
2013-07-20 13:10:00,77.9,59.9,29.78,SSE,165,10.4,10.4,54,0.00,CLR,,0.00,WeatherDisplay:10.37,2013-07-20 20:10:00,
2013-07-20 13:15:00,77.7,60.2,29.78,SSE,167,7.0,7.0,55,0.00,CLR,,0.00,WeatherDisplay:10.37,2013-07-20 20:15:00,
2013-07-20 13:20:00,78.2,60.7,29.78,SSE,155,11.5,11.5,55,0.00,CLR,,0.00,WeatherDisplay:10.37,2013-07-20 20:20:00,
2013-07-20 13:25:00,78.7,61.2,29.78,ESE,116,6.9,6.9,55,0.00,CLR,,0.00,WeatherDisplay:10.37,2013-07-20 20:25:00,
2013-07-20 13:30:00,79.6,61.5,29.78,SE,139,8.1,8.1,54,0.00,CLR,,0.00,WeatherDisplay:10.37,2013-07-20 20:30:00,
2013-07-20 13:35:00,79.6,61.0,29.78,SSW,205,6.9,6.9,53,0.00,CLR,,0.00,WeatherDisplay:10.37,2013-07-20 20:35:00,
2013-07-20 13:40:00,80.2,60.4,29.77,South,184,6.9,6.9,51,0.00,CLR,,0.00,WeatherDisplay:10.37,2013-07-20 20:40:00,
2013-07-20 13:45:00,80.6,60.8,29.77,South,178,6.0,6.0,51,0.00,CLR,,0.00,WeatherDisplay:10.37,2013-07-20 20:45:00,
2013-07-20 13:50:00,80.9,60.5,29.77,SE,145,6.9,6.9,50,0.00,CLR,,0.00,WeatherDisplay:10.37,2013-07-20 20:50:00,
2013-07-20 13:55:00,80.5,60.7,29.77,SSE,156,10.4,10.4,51,0.00,CLR,,0.00,WeatherDisplay:10.37,2013-07-20 20:55:00,
2013-07-20 14:00:00,81.4,62.1,29.76,SSW,212,5.8,5.8,52,0.00,CLR,,0.00,WeatherDisplay:10.37,2013-07-20 21:00:00,
2013-07-20 14:05:00,82.4,61.9,29.76,South,169,7.0,7.0,50,0.00,CLR,,0.00,WeatherDisplay:10.37,2013-07-20 21:05:00,
2013-07-20 14:11:00,82.8,61.7,29.76,SSE,167,9.2,9.2,49,0.00,CLR,,0.00,WeatherDisplay:10.37,2013-07-20 21:11:00,
2013-07-20 14:16:00,83.6,61.8,29.76,SSE,149,9.2,9.2,48,0.00,CLR,,0.00,WeatherDisplay:10.37,2013-07-20 21:16:00,
2013-07-20 14:21:00,83.7,61.9,29.75,SSE,158,5.8,5.8,48,0.00,CLR,,0.00,WeatherDisplay:10.37,2013-07-20 21:21:00,
2013-07-20 14:26:00,84.3,61.9,29.75,SSE,160,5.8,5.8,47,0.00,CLR,,0.00,WeatherDisplay:10.37,2013-07-20 21:26:00,
2013-07-20 14:32:00,84.1,61.7,29.75,SSE,162,6.9,6.9,47,0.00,CLR,,0.00,WeatherDisplay:10.37,2013-07-20 21:32:00,
2013-07-20 14:37:00,83.6,61.2,29.75,South,180,9.2,9.2,47,0.00,CLR,,0.00,WeatherDisplay:10.37,2013-07-20 21:37:00,
2013-07-20 14:42:00,83.6,61.8,29.75,SW,219,4.6,4.6,48,0.00,CLR,,0.00,WeatherDisplay:10.37,2013-07-20 21:42:00,
2013-07-20 14:47:00,84.0,62.2,29.75,South,191,8.1,8.1,48,0.00,CLR,,0.00,WeatherDisplay:10.37,2013-07-20 21:47:00,
2013-07-20 14:52:00,84.1,62.3,29.75,SSE,153,6.9,6.9,48,0.00,CLR,,0.00,WeatherDisplay:10.37,2013-07-20 21:52:00,
2013-07-20 14:57:00,83.8,61.4,29.75,SSW,203,5.8,5.8,47,0.00,CLR,,0.00,WeatherDisplay:10.37,2013-07-20 21:57:00,
2013-07-20 15:02:00,83.9,61.5,29.75,SSE,160,8.1,8.1,47,0.00,CLR,,0.00,WeatherDisplay:10.37,2013-07-20 22:02:00,
2013-07-20 15:07:00,83.4,61.7,29.75,SSE,160,11.5,11.5,48,0.00,CLR,,0.00,WeatherDisplay:10.37,2013-07-20 22:07:00,
2013-07-20 15:12:00,83.4,61.7,29.75,South,184,10.4,10.4,48,0.00,CLR,,0.00,WeatherDisplay:10.37,2013-07-20 22:12:00,
2013-07-20 15:18:00,83.1,62.0,29.75,SSE,152,6.9,6.9,49,0.00,CLR,,0.00,WeatherDisplay:10.37,2013-07-20 22:18:00,
2013-07-20 15:23:00,83.0,61.3,29.75,SSE,155,10.4,10.4,48,0.00,CLR,,0.00,WeatherDisplay:10.37,2013-07-20 22:23:00,
2013-07-20 15:28:00,83.6,62.4,29.74,South,170,9.2,9.2,49,0.00,CLR,,0.00,WeatherDisplay:10.37,2013-07-20 22:28:00,
2013-07-20 15:33:00,83.0,61.9,29.74,SSE,163,8.1,8.1,49,0.00,CLR,,0.00,WeatherDisplay:10.37,2013-07-20 22:33:00,
2013-07-20 15:38:00,82.8,61.7,29.74,SSW,211,10.4,10.4,49,0.00,CLR,,0.00,WeatherDisplay:10.37,2013-07-20 22:38:00,
2013-07-20 15:43:00,83.2,61.5,29.74,SSE,160,8.1,8.1,48,0.00,CLR,,0.00,WeatherDisplay:10.37,2013-07-20 22:43:00,
2013-07-20 15:48:00,82.9,61.8,29.74,South,173,9.2,9.2,49,0.00,CLR,,0.00,WeatherDisplay:10.37,2013-07-20 22:48:00,
2013-07-20 15:53:00,82.7,61.6,29.74,SW,222,10.4,10.4,49,0.00,CLR,,0.00,WeatherDisplay:10.37,2013-07-20 22:53:00,
2013-07-20 15:58:00,82.3,61.2,29.74,South,191,11.5,11.5,49,0.00,CLR,,0.00,WeatherDisplay:10.37,2013-07-20 22:58:00,
2013-07-20 16:03:00,82.0,61.0,29.73,SSW,210,8.1,8.1,49,0.00,CLR,,0.00,WeatherDisplay:10.37,2013-07-20 23:03:00,
2013-07-20 16:08:00,82.3,61.2,29.73,South,173,9.2,9.2,49,0.00,CLR,,0.00,WeatherDisplay:10.37,2013-07-20 23:08:00,
2013-07-20 16:13:00,82.3,61.2,29.73,SSE,165,9.2,9.2,49,0.00,CLR,,0.00,WeatherDisplay:10.37,2013-07-20 23:13:00,
2013-07-20 16:18:00,81.7,61.8,29.73,SSE,151,4.0,4.0,51,0.00,CLR,,0.00,WeatherDisplay:10.37,2013-07-20 23:18:00,
2013-07-20 16:23:00,81.3,61.4,29.72,ESE,121,5.8,5.8,51,0.00,CLR,,0.00,WeatherDisplay:10.37,2013-07-20 23:23:00,
2013-07-20 16:28:00,81.2,61.4,29.72,SE,135,11.5,11.5,51,0.00,CLR,,0.00,WeatherDisplay:10.37,2013-07-20 23:28:00,
2013-07-20 16:33:00,80.8,61.5,29.72,SSE,150,9.2,9.2,52,0.00,CLR,,0.00,WeatherDisplay:10.37,2013-07-20 23:33:00,
2013-07-20 16:38:00,80.3,61.6,29.72,SE,126,4.6,4.6,53,0.00,CLR,,0.00,WeatherDisplay:10.37,2013-07-20 23:38:00,
2013-07-20 16:43:00,80.2,61.0,29.72,South,169,10.4,10.4,52,0.00,CLR,,0.00,WeatherDisplay:10.37,2013-07-20 23:43:00,
2013-07-20 16:48:00,80.0,61.3,29.72,SE,132,3.5,5.1,53,0.00,CLR,,0.00,WeatherDisplay:10.37,2013-07-20 23:48:00,
2013-07-20 16:53:00,79.8,60.6,29.72,South,187,8.1,8.1,52,0.00,CLR,,0.00,WeatherDisplay:10.37,2013-07-20 23:53:00,
2013-07-20 16:58:00,79.7,61.1,29.72,ESE,118,6.9,6.9,53,0.00,CLR,,0.00,WeatherDisplay:10.37,2013-07-20 23:58:00,
2013-07-20 17:03:00,79.6,61.5,29.72,SSE,158,13.0,13.0,54,0.00,CLR,,0.00,WeatherDisplay:10.37,2013-07-21 00:03:00,
2013-07-20 17:08:00,79.5,61.4,29.71,SSE,152,6.9,6.9,54,0.00,CLR,,0.00,WeatherDisplay:10.37,2013-07-21 00:08:00,
2013-07-20 17:13:00,79.5,61.4,29.71,SE,145,9.2,9.2,54,0.00,CLR,,0.00,WeatherDisplay:10.37,2013-07-21 00:13:00,
2013-07-20 17:18:00,79.4,60.8,29.71,SSE,150,5.8,5.8,53,0.00,CLR,,0.00,WeatherDisplay:10.37,2013-07-21 00:18:00,
2013-07-20 17:23:00,79.0,61.5,29.71,SE,124,4.6,4.6,55,0.00,CLR,,0.00,WeatherDisplay:10.37,2013-07-21 00:23:00,
2013-07-20 17:28:00,78.8,60.7,29.71,SSE,166,12.0,12.0,54,0.00,CLR,,0.00,WeatherDisplay:10.37,2013-07-21 00:28:00,
2013-07-20 17:33:00,78.4,60.4,29.71,South,173,14.0,14.0,54,0.00,CLR,,0.00,WeatherDisplay:10.37,2013-07-21 00:33:00,
2013-07-20 17:39:00,78.0,60.5,29.71,South,181,13.8,13.8,55,0.00,CLR,,0.00,WeatherDisplay:10.37,2013-07-21 00:39:00,
2013-07-20 17:45:00,77.5,60.6,29.71,South,177,11.5,11.5,56,0.00,CLR,,0.00,WeatherDisplay:10.37,2013-07-21 00:45:00,
2013-07-20 17:50:00,77.2,60.3,29.71,SSE,160,13.0,13.0,56,0.00,CLR,,0.00,WeatherDisplay:10.37,2013-07-21 00:50:00,
2013-07-20 17:55:00,76.9,60.0,29.71,SE,131,5.8,5.8,56,0.00,CLR,,0.00,WeatherDisplay:10.37,2013-07-21 00:55:00,
2013-07-20 18:00:00,76.8,60.4,29.71,SE,130,9.2,9.2,57,0.00,CLR,,0.00,WeatherDisplay:10.37,2013-07-21 01:00:00,
2013-07-20 18:05:00,76.5,60.6,29.71,SE,139,4.6,4.6,58,0.00,CLR,,0.00,WeatherDisplay:10.37,2013-07-21 01:05:00,
2013-07-20 18:41:00,74.4,60.1,29.71,SE,134,11.5,11.5,61,0.00,CLR,,0.00,WeatherDisplay:10.37,2013-07-21 01:41:00,
2013-07-20 18:47:00,74.1,59.8,29.71,SSE,148,11.5,11.5,61,0.00,CLR,,0.00,WeatherDisplay:10.37,2013-07-21 01:47:00,
2013-07-20 18:52:00,73.9,60.1,29.72,SSE,162,10.4,10.4,62,0.00,CLR,,0.00,WeatherDisplay:10.37,2013-07-21 01:52:00,
2013-07-20 18:57:00,73.7,59.9,29.72,SSE,163,11.5,11.5,62,0.00,CLR,,0.00,WeatherDisplay:10.37,2013-07-21 01:57:00,
2013-07-20 19:02:00,73.6,59.8,29.72,South,186,10.4,10.4,62,0.00,CLR,,0.00,WeatherDisplay:10.37,2013-07-21 02:02:00,
2013-07-20 19:07:00,73.2,59.8,29.72,SSW,194,10.4,10.4,63,0.00,CLR,,0.00,WeatherDisplay:10.37,2013-07-21 02:07:00,
2013-07-20 19:12:00,72.8,59.5,29.72,SE,142,11.5,11.5,63,0.00,CLR,,0.00,WeatherDisplay:10.37,2013-07-21 02:12:00,
2013-07-20 19:17:00,72.6,59.7,29.73,SE,145,8.1,8.1,64,0.00,CLR,,0.00,WeatherDisplay:10.37,2013-07-21 02:17:00,
2013-07-20 19:22:00,72.2,59.8,29.73,SSE,156,9.2,9.2,65,0.00,CLR,,0.00,WeatherDisplay:10.37,2013-07-21 02:22:00,
2013-07-20 19:27:00,71.9,59.9,29.73,SSE,158,11.5,11.5,66,0.00,CLR,,0.00,WeatherDisplay:10.37,2013-07-21 02:27:00,
2013-07-20 19:32:00,71.4,59.4,29.73,SSE,166,11.5,11.5,66,0.00,CLR,,0.00,WeatherDisplay:10.37,2013-07-21 02:32:00,
2013-07-20 19:37:00,70.7,59.6,29.73,SSE,161,9.2,9.2,68,0.00,CLR,,0.00,WeatherDisplay:10.37,2013-07-21 02:37:00,
2013-07-20 19:42:00,70.1,59.5,29.73,SSE,161,9.2,9.2,69,0.00,CLR,,0.00,WeatherDisplay:10.37,2013-07-21 02:42:00,
2013-07-20 19:47:00,69.8,59.2,29.73,SE,139,5.8,5.8,69,0.00,CLR,,0.00,WeatherDisplay:10.37,2013-07-21 02:47:00,
2013-07-20 19:52:00,69.4,58.8,29.73,SSE,148,9.2,9.2,69,0.00,CLR,,0.00,WeatherDisplay:10.37,2013-07-21 02:52:00,
2013-07-20 19:57:00,68.9,58.7,29.73,SSE,163,7.0,7.0,70,0.00,CLR,,0.00,WeatherDisplay:10.37,2013-07-21 02:57:00,
2013-07-20 20:02:00,68.4,58.2,29.73,SSE,165,8.1,8.1,70,0.00,CLR,,0.00,WeatherDisplay:10.37,2013-07-21 03:02:00,
2013-07-20 20:08:00,67.9,58.1,29.73,SSE,167,5.8,5.8,71,0.00,CLR,,0.00,WeatherDisplay:10.37,2013-07-21 03:08:00,
2013-07-20 20:13:00,67.2,57.9,29.74,SSW,203,5.8,5.8,72,0.00,CLR,,0.00,WeatherDisplay:10.37,2013-07-21 03:13:00,
2013-07-20 20:18:00,66.6,57.7,29.74,South,172,11.5,11.5,73,0.00,CLR,,0.00,WeatherDisplay:10.37,2013-07-21 03:18:00,
2013-07-20 20:23:00,66.1,57.6,29.74,South,169,11.5,11.5,74,0.00,CLR,,0.00,WeatherDisplay:10.37,2013-07-21 03:23:00,
2013-07-20 20:28:00,65.6,57.5,29.74,SE,144,5.8,5.8,75,0.00,CLR,,0.00,WeatherDisplay:10.37,2013-07-21 03:28:00,
2013-07-20 20:33:00,65.2,57.4,29.74,South,176,6.0,6.0,76,0.00,CLR,,0.00,WeatherDisplay:10.37,2013-07-21 03:33:00,
2013-07-20 20:38:00,64.7,57.3,29.74,SE,146,8.1,8.1,77,0.00,CLR,,0.00,WeatherDisplay:10.37,2013-07-21 03:38:00,
2013-07-20 20:43:00,64.3,57.3,29.74,South,185,7.0,7.0,78,0.00,CLR,,0.00,WeatherDisplay:10.37,2013-07-21 03:43:00,
2013-07-20 20:48:00,63.7,57.1,29.75,SE,126,5.8,5.8,79,0.00,CLR,,0.00,WeatherDisplay:10.37,2013-07-21 03:48:00,
2013-07-20 20:53:00,63.2,56.9,29.75,SE,139,8.1,8.1,80,0.00,CLR,,0.00,WeatherDisplay:10.37,2013-07-21 03:53:00,
2013-07-20 20:59:00,62.7,56.8,29.75,South,184,10.4,10.4,81,0.00,CLR,,0.00,WeatherDisplay:10.37,2013-07-21 03:59:00,
2013-07-20 21:01:00,62.5,56.9,29.75,South,183,4.6,4.6,82,0.00,CLR,,0.00,WeatherDisplay:10.37,2013-07-21 04:01:00,
2013-07-20 21:02:00,62.4,56.8,29.75,South,177,8.1,8.1,82,0.00,CLR,,0.00,WeatherDisplay:10.37,2013-07-21 04:02:00,
2013-07-20 21:03:00,62.3,56.7,29.75,SSE,167,8.1,8.1,82,0.00,CLR,,0.00,WeatherDisplay:10.37,2013-07-21 04:03:00,
2013-07-20 21:05:00,62.2,56.6,29.75,SE,130,4.6,4.6,82,0.00,CLR,,0.00,WeatherDisplay:10.37,2013-07-21 04:05:00,
2013-07-20 21:10:00,61.8,56.6,29.76,SSE,158,3.5,4.1,83,0.00,CLR,,0.00,WeatherDisplay:10.37,2013-07-21 04:10:00,
2013-07-20 21:15:00,61.5,56.3,29.76,ESE,118,6.9,6.9,83,0.00,CLR,,0.00,WeatherDisplay:10.37,2013-07-21 04:15:00,
2013-07-20 21:20:00,61.3,56.4,29.76,SSE,155,3.5,3.5,84,0.00,CLR,,0.00,WeatherDisplay:10.37,2013-07-21 04:20:00,
2013-07-20 21:25:00,61.0,56.1,29.77,SE,135,3.5,3.5,84,0.00,CLR,,0.00,WeatherDisplay:10.37,2013-07-21 04:25:00,
2013-07-20 21:30:00,60.8,55.9,29.77,SSE,159,5.8,5.8,84,0.00,CLR,,0.00,WeatherDisplay:10.37,2013-07-21 04:30:00,
2013-07-20 21:35:00,60.6,56.1,29.77,SSE,160,9.2,9.2,85,0.00,CLR,,0.00,WeatherDisplay:10.37,2013-07-21 04:35:00,
2013-07-20 21:40:00,60.4,55.9,29.77,SSE,156,8.1,8.1,85,0.00,CLR,,0.00,WeatherDisplay:10.37,2013-07-21 04:40:00,
2013-07-20 21:45:00,60.2,55.7,29.77,SE,143,9.2,9.2,85,0.00,CLR,,0.00,WeatherDisplay:10.37,2013-07-21 04:45:00,
2013-07-20 21:50:00,60.0,55.8,29.77,SSE,163,4.6,4.6,86,0.00,CLR,,0.00,WeatherDisplay:10.37,2013-07-21 04:50:00,
2013-07-20 21:55:00,59.8,55.6,29.78,SSE,158,6.9,6.9,86,0.00,CLR,,0.00,WeatherDisplay:10.37,2013-07-21 04:55:00,
2013-07-20 22:00:00,59.6,55.4,29.78,SSE,165,6.9,6.9,86,0.00,CLR,,0.00,WeatherDisplay:10.37,2013-07-21 05:00:00,
2013-07-20 22:05:00,59.5,55.3,29.78,SSW,201,9.2,9.2,86,0.00,CLR,,0.00,WeatherDisplay:10.37,2013-07-21 05:05:00,
2013-07-20 22:10:00,59.2,55.3,29.78,SSE,165,5.8,5.8,87,0.00,CLR,,0.00,WeatherDisplay:10.37,2013-07-21 05:10:00,
2013-07-20 22:15:00,59.0,55.1,29.79,SSE,149,10.4,10.4,87,0.00,CLR,,0.00,WeatherDisplay:10.37,2013-07-21 05:15:00,
2013-07-20 22:20:00,58.8,54.9,29.79,South,173,8.0,8.0,87,0.00,CLR,,0.00,WeatherDisplay:10.37,2013-07-21 05:20:00,
2013-07-20 22:25:00,58.6,54.7,29.79,SE,136,4.6,4.6,87,0.00,CLR,,0.00,WeatherDisplay:10.37,2013-07-21 05:25:00,
2013-07-20 22:30:00,58.5,55.0,29.79,SSE,152,6.9,6.9,88,0.00,CLR,,0.00,WeatherDisplay:10.37,2013-07-21 05:30:00,
2013-07-20 22:35:00,58.3,54.8,29.79,South,172,4.6,4.6,88,0.00,CLR,,0.00,WeatherDisplay:10.37,2013-07-21 05:35:00,
2013-07-20 22:40:00,58.2,54.7,29.79,SSE,167,3.5,3.5,88,0.00,CLR,,0.00,WeatherDisplay:10.37,2013-07-21 05:40:00,
2013-07-20 22:45:00,58.2,54.7,29.79,SSE,160,3.5,3.5,88,0.00,CLR,,0.00,WeatherDisplay:10.37,2013-07-21 05:45:00,
2013-07-20 22:50:00,58.1,54.6,29.79,SSE,159,8.1,8.1,88,0.00,CLR,,0.00,WeatherDisplay:10.37,2013-07-21 05:50:00,
2013-07-20 22:55:00,58.0,54.8,29.79,SSW,211,3.5,3.5,89,0.00,CLR,,0.00,WeatherDisplay:10.37,2013-07-21 05:55:00,
2013-07-20 23:00:00,57.9,54.7,29.79,SE,139,4.6,4.6,89,0.00,CLR,,0.00,WeatherDisplay:10.37,2013-07-21 06:00:00,
2013-07-20 23:05:00,57.8,54.6,29.79,SE,146,3.5,3.5,89,0.00,CLR,,0.00,WeatherDisplay:10.37,2013-07-21 06:05:00,
2013-07-20 23:10:00,57.7,54.5,29.79,SSW,193,3.5,3.5,89,0.00,CLR,,0.00,WeatherDisplay:10.37,2013-07-21 06:10:00,
2013-07-20 23:15:00,57.7,54.5,29.79,SE,144,3.5,3.5,89,0.00,CLR,,0.00,WeatherDisplay:10.37,2013-07-21 06:15:00,
2013-07-20 23:20:00,57.6,54.4,29.79,SE,146,1.2,1.6,89,0.00,CLR,,0.00,WeatherDisplay:10.37,2013-07-21 06:20:00,
2013-07-20 23:25:00,57.6,54.4,29.79,SE,134,3.0,3.0,89,0.00,CLR,,0.00,WeatherDisplay:10.37,2013-07-21 06:25:00,
2013-07-20 23:30:00,57.7,54.5,29.79,SE,128,3.5,3.5,89,0.00,CLR,,0.00,WeatherDisplay:10.37,2013-07-21 06:30:00,
2013-07-20 23:35:00,57.7,54.5,29.80,SSE,148,3.5,3.5,89,0.00,CLR,,0.00,WeatherDisplay:10.37,2013-07-21 06:35:00,
2013-07-20 23:40:00,57.8,54.6,29.80,SSE,157,3.5,3.5,89,0.00,CLR,,0.00,WeatherDisplay:10.37,2013-07-21 06:40:00,
2013-07-20 23:45:00,57.7,54.5,29.79,ESE,118,2.3,2.3,89,0.00,CLR,,0.00,WeatherDisplay:10.37,2013-07-21 06:45:00,
2013-07-20 23:50:00,57.8,54.6,29.79,SE,124,2.3,2.3,89,0.00,CLR,,0.00,WeatherDisplay:10.37,2013-07-21 06:50:00,
2013-07-20 23:55:00,57.8,54.6,29.79,ESE,115,2.0,2.0,89,0.00,CLR,,0.00,WeatherDisplay:10.37,2013-07-21 06:55:00,